Time;durP1;ratioP1;P1;durP2;ratioP2;P2;SDS_P1;SDS_P2;PMS_P1;PMS_P2;Temp;Humidity;BMP_temperature;BMP_pressure;BME280_temperature;BME280_humidity;BME280_pressure;Samples;Min_cycle;Max_cycle;Signal;HPM_P1;HPM_P2
2024/01/29 00:02:00;;;;;;;10.20;6.53;;;;;;;1.52;70.76;96299.38;5070416;28;20040;-68
2024/01/29 00:04:25;;;;;;;11.93;6.93;;;;;;;1.49;71.07;96302.00;5070325;28;20218;-68
2024/01/29 00:06:51;;;;;;;11.73;7.32;;;;;;;1.42;71.53;96303.03;5069917;28;20036;-67
2024/01/29 00:09:17;;;;;;;13.93;7.45;;;;;;;1.39;71.32;96314.16;5070511;28;20044;-68
2024/01/29 00:11:43;;;;;;;14.32;7.18;;;;;;;1.41;70.68;96303.91;5068627;28;20032;-69
2024/01/29 00:14:08;;;;;;;12.63;7.28;;;;;;;1.65;70.71;96307.63;5052340;28;20037;-68
2024/01/29 00:16:34;;;;;;;9.60;6.30;;;;;;;1.71;70.52;96304.91;5070336;28;20047;-69
2024/01/29 00:18:59;;;;;;;10.68;6.70;;;;;;;1.43;71.11;96304.72;5069048;28;20082;-68
2024/01/29 00:21:25;;;;;;;10.90;7.90;;;;;;;1.36;70.96;96305.72;5052562;28;20032;-69
2024/01/29 00:23:50;;;;;;;10.68;7.07;;;;;;;1.36;71.31;96309.13;5069110;28;20064;-69
2024/01/29 00:26:15;;;;;;;10.93;6.88;;;;;;;1.28;71.54;96295.66;5070180;28;20078;-69
2024/01/29 00:28:41;;;;;;;12.88;6.93;;;;;;;1.32;71.42;96298.13;5070163;28;20040;-69
2024/01/29 00:31:07;;;;;;;10.95;6.72;;;;;;;1.23;71.13;96305.19;5070136;28;20032;-69
2024/01/29 00:33:32;;;;;;;11.27;6.70;;;;;;;1.38;70.73;96306.53;5069057;28;20021;-68
2024/01/29 00:35:58;;;;;;;11.05;6.72;;;;;;;1.38;70.67;96306.53;5068986;28;20538;-68
2024/01/29 00:38:23;;;;;;;11.60;6.78;;;;;;;1.15;71.62;96299.38;5070505;28;20025;-69
2024/01/29 00:40:49;;;;;;;10.88;6.82;;;;;;;1.22;71.05;96293.25;5058723;28;20036;-68
2024/01/29 00:43:14;;;;;;;11.02;6.95;;;;;;;1.17;71.42;96308.72;5032344;28;20537;-69
2024/01/29 00:45:40;;;;;;;9.43;6.53;;;;;;;1.33;71.19;96310.03;5049919;28;20433;-69
2024/01/29 00:48:05;;;;;;;11.10;6.80;;;;;;;1.44;70.49;96312.34;5032363;28;20037;-69
2024/01/29 00:50:30;;;;;;;10.73;6.78;;;;;;;1.50;70.36;96298.56;5037249;28;20107;-69
2024/01/29 00:52:56;;;;;;;12.10;7.45;;;;;;;1.24;71.01;96300.00;5034423;28;20043;-69
2024/01/29 00:55:22;;;;;;;10.95;7.43;;;;;;;1.41;70.75;96302.19;5051357;28;20036;-69
2024/01/29 00:57:47;;;;;;;14.93;9.20;;;;;;;1.44;70.80;96311.50;5035437;28;20044;-69
2024/01/29 01:00:14;;;;;;;9.93;7.22;;;;;;;1.29;71.51;96317.84;5051610;28;20029;-69
2024/01/29 01:02:39;;;;;;;12.40;7.50;;;;;;;1.39;71.12;96326.13;5053172;28;20158;-69
2024/01/29 01:05:06;;;;;;;10.57;7.15;;;;;;;1.59;70.46;96323.13;5057082;28;20036;-69
2024/01/29 01:07:32;;;;;;;11.88;7.15;;;;;;;1.48;70.43;96320.84;5070997;28;20037;-69
2024/01/29 01:09:57;;;;;;;12.90;6.53;;;;;;;1.52;70.88;96317.31;5073088;28;20033;-68
2024/01/29 01:12:22;;;;;;;9.27;6.65;;;;;;;1.58;70.75;96324.84;5072092;28;20028;-69
2024/01/29 01:14:48;;;;;;;10.25;7.25;;;;;;;1.50;70.66;96312.19;5038100;28;20033;-69
2024/01/29 01:17:13;;;;;;;14.07;6.95;;;;;;;1.45;70.73;96319.19;5072618;28;20489;-69
2024/01/29 01:19:39;;;;;;;10.50;7.30;;;;;;;1.55;70.48;96320.63;5070634;28;20029;-69
2024/01/29 01:22:05;;;;;;;11.20;7.90;;;;;;;1.39;71.06;96315.91;5072659;28;20079;-69
2024/01/29 01:24:30;;;;;;;12.60;7.72;;;;;;;1.41;71.23;96301.34;5071650;28;20024;-69
2024/01/29 01:26:55;;;;;;;13.80;7.50;;;;;;;1.72;70.63;96321.94;5072324;28;20028;-69
2024/01/29 01:29:21;;;;;;;13.43;8.23;;;;;;;1.22;71.63;96312.00;5071352;28;20025;-69
2024/01/29 01:31:46;;;;;;;12.95;8.73;;;;;;;1.43;71.49;96320.94;5063066;28;20487;-69
2024/01/29 01:34:12;;;;;;;14.30;10.25;;;;;;;1.44;71.00;96324.31;5051190;28;20037;-69
2024/01/29 01:36:37;;;;;;;12.10;8.45;;;;;;;1.30;71.57;96320.34;5051293;28;20025;-69
2024/01/29 01:39:03;;;;;;;17.88;8.82;;;;;;;1.04;73.39;96320.09;5051354;28;20036;-69
2024/01/29 01:41:29;;;;;;;10.95;7.82;;;;;;;0.70;74.41;96315.69;5059367;28;20033;-68
2024/01/29 01:43:54;;;;;;;14.45;8.13;;;;;;;0.51;75.23;96319.47;5052420;28;20083;-69
2024/01/29 01:46:23;;;;;;;15.57;8.60;;;;;;;0.48;75.66;96319.53;5059855;28;20045;-68
2024/01/29 01:48:53;;;;;;;15.55;8.77;;;;;;;0.59;75.84;96312.50;5051179;28;20112;-69
2024/01/29 01:51:22;;;;;;;15.45;8.82;;;;;;;0.50;76.09;96323.72;5049721;28;20031;-69
2024/01/29 01:53:50;;;;;;;14.40;9.10;;;;;;;0.22;76.29;96314.06;5051438;28;20086;-69
2024/01/29 01:56:15;;;;;;;13.10;9.50;;;;;;;-0.01;76.18;96250.56;5034672;28;20400;-69
2024/01/29 01:58:41;;;;;;;17.25;9.63;;;;;;;0.43;76.24;96310.22;5050892;28;20032;-69
2024/01/29 02:01:07;;;;;;;17.90;10.90;;;;;;;0.09;77.48;96291.31;5064909;28;20071;-69
2024/01/29 02:03:32;;;;;;;15.55;9.13;;;;;;;0.65;75.78;96320.88;5050955;28;20460;-69
2024/01/29 02:05:58;;;;;;;17.67;9.02;;;;;;;0.68;75.96;96319.97;5043679;28;20036;-69
2024/01/29 02:08:23;;;;;;;14.00;8.70;;;;;;;0.59;76.47;96315.06;5058826;28;20029;-69
2024/01/29 02:10:49;;;;;;;15.90;9.18;;;;;;;0.57;76.11;96317.63;5034409;28;20037;-69
2024/01/29 02:13:14;;;;;;;15.38;10.50;;;;;;;0.41;76.17;96317.09;5050670;28;20029;-69
2024/01/29 02:15:40;;;;;;;16.73;10.32;;;;;;;0.54;76.55;96316.88;5051249;28;20028;-69
2024/01/29 02:18:06;;;;;;;13.90;9.32;;;;;;;0.68;75.48;96307.19;5070394;28;20029;-69
2024/01/29 02:20:31;;;;;;;15.07;9.10;;;;;;;0.86;75.51;96309.38;5072260;28;20032;-69
2024/01/29 02:22:57;;;;;;;15.85;10.35;;;;;;;0.70;75.13;96300.34;5053799;28;20028;-69
2024/01/29 02:25:22;;;;;;;14.45;9.75;;;;;;;0.80;75.26;96319.72;5053214;28;20406;-69
2024/01/29 02:27:48;;;;;;;17.17;11.68;;;;;;;0.86;75.02;96322.19;5068959;28;20029;-68
2024/01/29 02:30:13;;;;;;;17.83;10.50;;;;;;;0.95;75.19;96318.59;5052046;28;20027;-69
2024/01/29 02:32:39;;;;;;;18.90;10.40;;;;;;;1.19;74.50;96330.00;5034186;28;20033;-69
2024/01/29 02:35:05;;;;;;;14.02;9.43;;;;;;;1.37;73.52;96335.59;5069803;28;20045;-69
2024/01/29 02:37:30;;;;;;;12.98;9.10;;;;;;;1.30;73.19;96324.63;5070289;28;20418;-69
2024/01/29 02:39:55;;;;;;;14.70;9.43;;;;;;;1.32;72.88;96315.22;5053475;28;20025;-69
2024/01/29 02:42:21;;;;;;;13.25;8.45;;;;;;;1.18;72.60;96307.84;5053556;28;20029;-69
2024/01/29 02:44:46;;;;;;;15.18;9.45;;;;;;;1.09;73.82;96325.97;5070736;28;20040;-69
2024/01/29 02:47:12;;;;;;;13.50;8.82;;;;;;;1.07;73.74;96328.53;5070142;28;20033;-69
2024/01/29 02:49:37;;;;;;;17.65;10.10;;;;;;;0.81;74.34;96331.66;5042524;28;20470;-69
2024/01/29 02:52:04;;;;;;;16.70;11.35;;;;;;;0.72;74.75;96331.81;5062728;28;20036;-69
2024/01/29 02:54:29;;;;;;;17.25;11.70;;;;;;;0.60;75.63;96332.91;5053440;28;20481;-69
2024/01/29 02:56:55;;;;;;;25.33;17.58;;;;;;;0.81;75.72;96326.53;5053415;28;20039;-69
2024/01/29 02:59:20;;;;;;;30.13;16.80;;;;;;;0.89;75.24;96324.66;5069867;28;20024;-69
2024/01/29 03:01:45;;;;;;;27.63;15.98;;;;;;;0.93;75.45;96329.72;5053358;28;20029;-69
2024/01/29 03:04:11;;;;;;;20.92;10.30;;;;;;;0.87;75.07;96331.53;5069614;28;20028;-69
2024/01/29 03:06:37;;;;;;;16.83;9.70;;;;;;;0.74;75.55;96330.09;5071062;28;20506;-68
2024/01/29 03:09:02;;;;;;;17.45;9.77;;;;;;;0.64;75.99;96331.13;5069595;28;20029;-68
2024/01/29 03:11:27;;;;;;;18.02;10.57;;;;;;;0.64;76.50;96331.13;5032247;28;20033;-68
2024/01/29 03:13:53;;;;;;;15.52;10.00;;;;;;;0.60;76.02;96320.13;5049635;28;20033;-69
2024/01/29 03:16:18;;;;;;;22.73;10.55;;;;;;;0.65;76.10;96337.94;5056723;28;20358;-68
2024/01/29 03:18:44;;;;;;;17.52;10.48;;;;;;;0.65;76.33;96336.22;5049663;28;20067;-69
2024/01/29 03:21:10;;;;;;;16.80;10.25;;;;;;;0.64;76.00;96328.56;5060574;28;20090;-69
2024/01/29 03:23:35;;;;;;;19.40;10.65;;;;;;;0.75;75.92;96331.75;5053052;28;20025;-69
2024/01/29 03:26:01;;;;;;;16.73;10.63;;;;;;;0.74;75.95;96334.38;5069542;28;20040;-69
2024/01/29 03:28:26;;;;;;;21.92;12.07;;;;;;;0.66;76.19;96332.78;5070891;28;20391;-69
2024/01/29 03:30:51;;;;;;;19.13;11.07;;;;;;;0.76;76.30;96332.63;5068838;28;20029;-69
2024/01/29 03:33:17;;;;;;;16.67;10.73;;;;;;;0.82;75.45;96327.38;5070817;28;20482;-69
2024/01/29 03:35:42;;;;;;;20.63;11.73;;;;;;;0.83;75.51;96324.78;5052617;28;20052;-69
2024/01/29 03:38:08;;;;;;;18.23;10.10;;;;;;;0.99;74.79;96329.59;5070761;28;20055;-69
2024/01/29 03:40:33;;;;;;;17.73;9.93;;;;;;;0.93;74.82;96320.31;5070811;28;20029;-69
2024/01/29 03:42:58;;;;;;;17.00;9.98;;;;;;;1.11;74.36;96326.75;5052719;28;20025;-68
2024/01/29 03:45:24;;;;;;;15.32;9.93;;;;;;;1.10;73.84;96330.19;5070759;28;20024;-69
2024/01/29 03:47:49;;;;;;;15.45;9.15;;;;;;;1.03;74.03;96326.94;5069339;28;20028;-69
2024/01/29 03:50:14;;;;;;;17.20;9.55;;;;;;;1.11;74.12;96330.19;5069563;28;20037;-69
2024/01/29 03:52:40;;;;;;;18.20;9.73;;;;;;;1.03;74.11;96321.81;5070419;28;20074;-69
2024/01/29 03:55:06;;;;;;;17.55;9.95;;;;;;;1.00;74.01;96332.09;5052117;28;20033;-69
2024/01/29 03:57:31;;;;;;;14.70;8.65;;;;;;;0.88;74.41;96334.91;5052512;28;20043;-69
2024/01/29 03:59:57;;;;;;;13.82;8.63;;;;;;;0.64;75.07;96333.69;5070440;28;20040;-68
2024/01/29 04:02:23;;;;;;;11.10;8.00;;;;;;;0.52;75.28;96336.50;5068375;28;20052;-69
2024/01/29 04:04:49;;;;;;;16.45;9.73;;;;;;;0.39;76.24;96334.19;5052573;28;20079;-69
2024/01/29 04:07:15;;;;;;;16.70;9.57;;;;;;;0.25;76.53;96323.34;5035680;28;20514;-69
2024/01/29 04:09:41;;;;;;;14.60;8.63;;;;;;;0.65;75.80;96340.50;5052665;28;20063;-69
2024/01/29 04:12:06;;;;;;;23.55;12.50;;;;;;;0.53;76.26;96320.28;5069934;28;20029;-68
2024/01/29 04:14:35;;;;;;;33.40;14.20;;;;;;;0.68;75.56;96327.66;5065856;28;20024;-69
2024/01/29 04:17:04;;;;;;;39.22;17.90;;;;;;;0.60;76.04;96330.34;5056520;28;20039;-69
2024/01/29 04:19:30;;;;;;;51.63;27.00;;;;;;;0.60;76.17;96321.84;5067349;28;20094;-69
2024/01/29 04:21:57;;;;;;;71.85;31.73;;;;;;;0.61;75.72;96333.75;5043572;28;20565;-69
2024/01/29 04:24:22;;;;;;;47.47;21.23;;;;;;;0.56;75.89;96325.34;5069700;28;20032;-69
2024/01/29 04:26:48;;;;;;;25.05;12.10;;;;;;;0.51;76.32;96345.06;5051110;28;20090;-69
2024/01/29 04:29:13;;;;;;;41.65;20.10;;;;;;;0.68;76.34;96340.44;5071138;28;20025;-69
2024/01/29 04:31:39;;;;;;;59.72;30.17;;;;;;;0.54;76.17;96332.22;5058384;28;20028;-69
2024/01/29 04:34:05;;;;;;;31.10;16.60;;;;;;;0.72;75.88;96347.19;5052958;28;20084;-68
2024/01/29 04:36:30;;;;;;;29.80;15.23;;;;;;;1.02;74.03;96339.75;5069242;28;20532;-70
2024/01/29 04:38:56;;;;;;;24.00;12.50;;;;;;;0.99;74.32;96352.63;5056117;28;20036;-69
2024/01/29 04:41:21;;;;;;;45.33;27.80;;;;;;;0.87;74.27;96352.00;5047139;28;20036;-69
2024/01/29 04:43:47;;;;;;;27.17;17.50;;;;;;;0.78;74.86;96341.09;5053150;28;20052;-69
2024/01/29 04:46:13;;;;;;;24.63;14.40;;;;;;;0.68;74.84;96355.78;5053787;28;20032;-69
2024/01/29 04:48:39;;;;;;;32.15;22.17;;;;;;;0.82;74.98;96342.72;5050435;28;20481;-69
2024/01/29 04:51:05;;;;;;;41.28;24.13;;;;;;;0.94;74.43;96362.94;5045249;28;20036;-69
2024/01/29 04:53:31;;;;;;;29.65;18.55;;;;;;;0.70;74.74;96351.50;5053972;28;20576;-70
2024/01/29 04:55:56;;;;;;;32.60;19.63;;;;;;;0.97;75.03;96373.09;5049543;28;20047;-69
2024/01/29 04:58:22;;;;;;;20.75;12.07;;;;;;;0.60;74.62;96347.44;5065552;28;20082;-69
2024/01/29 05:00:47;;;;;;;18.38;11.20;;;;;;;1.08;73.63;96380.56;5067484;28;20012;-69
2024/01/29 05:03:13;;;;;;;15.48;9.00;;;;;;;1.13;72.63;96389.00;5052884;28;20558;-69
2024/01/29 05:05:38;;;;;;;18.48;11.27;;;;;;;1.02;72.93;96385.81;5050211;28;20020;-69
2024/01/29 05:08:04;;;;;;;18.52;10.05;;;;;;;1.02;73.17;96380.72;5070126;28;20417;-68
2024/01/29 05:10:29;;;;;;;14.00;9.05;;;;;;;0.99;73.33;96365.41;5057728;28;20036;-69
2024/01/29 05:12:56;;;;;;;22.85;12.73;;;;;;;0.82;73.78;96373.44;5063461;28;20040;-70
2024/01/29 05:15:21;;;;;;;25.42;14.50;;;;;;;0.93;74.43;96380.91;5057963;28;20017;-69
2024/01/29 05:17:47;;;;;;;20.52;11.02;;;;;;;1.25;72.85;96391.28;5048755;28;20036;-69
2024/01/29 05:20:12;;;;;;;16.15;10.32;;;;;;;1.33;73.12;96393.69;5052550;28;20430;-69
2024/01/29 05:22:38;;;;;;;13.27;8.43;;;;;;;1.37;72.91;96381.69;5066058;28;20056;-69
2024/01/29 05:25:04;;;;;;;15.68;9.73;;;;;;;1.49;72.46;96396.78;5068713;28;20028;-69
2024/01/29 05:27:29;;;;;;;18.30;11.05;;;;;;;1.35;72.39;96402.19;5060156;28;20040;-70
2024/01/29 05:29:55;;;;;;;19.20;10.32;;;;;;;1.44;72.09;96396.03;5061995;28;20040;-69
2024/01/29 05:32:21;;;;;;;20.38;12.18;;;;;;;1.27;71.66;96402.34;5070905;28;20043;-69
2024/01/29 05:34:46;;;;;;;18.30;11.45;;;;;;;1.32;72.37;96395.41;5060951;28;20422;-69
2024/01/29 05:37:12;;;;;;;14.88;9.50;;;;;;;1.34;72.01;96388.56;5052900;28;20028;-69
2024/01/29 05:39:37;;;;;;;16.95;10.38;;;;;;;1.15;72.68;96364.22;5067726;28;20049;-68
2024/01/29 05:42:03;;;;;;;12.90;8.05;;;;;;;1.34;72.51;96391.13;5059488;28;20422;-69
2024/01/29 05:44:28;;;;;;;16.88;8.65;;;;;;;1.31;72.29;96401.44;5052780;28;20033;-70
2024/01/29 05:46:54;;;;;;;16.52;9.57;;;;;;;1.26;72.52;96405.81;5056067;28;20037;-69
2024/01/29 05:49:19;;;;;;;13.77;8.60;;;;;;;1.33;72.18;96409.91;5053568;28;20107;-68
2024/01/29 05:51:47;;;;;;;15.93;8.65;;;;;;;1.08;72.41;96401.88;5057517;28;20529;-70
2024/01/29 05:54:12;;;;;;;15.15;8.65;;;;;;;1.11;72.67;96406.97;5059371;28;20112;-69
2024/01/29 05:56:42;;;;;;;14.85;8.55;;;;;;;1.18;72.34;96410.25;5068430;28;20115;-68
2024/01/29 05:59:08;;;;;;;13.13;9.18;;;;;;;1.13;72.67;96409.47;5064476;28;20034;-68
2024/01/29 06:01:33;;;;;;;14.40;9.13;;;;;;;1.16;73.14;96411.13;5053027;28;20407;-69
2024/01/29 06:03:59;;;;;;;13.95;8.07;;;;;;;1.25;72.46;96409.22;5063083;28;20037;-70
2024/01/29 06:06:24;;;;;;;13.35;8.65;;;;;;;1.22;72.56;96414.41;5069272;28;20028;-70
2024/01/29 06:08:50;;;;;;;13.57;8.40;;;;;;;1.12;72.94;96397.56;5068165;28;20036;-71
2024/01/29 06:11:15;;;;;;;15.75;9.30;;;;;;;1.10;72.82;96409.53;5049984;28;20033;-68
2024/01/29 06:13:41;;;;;;;14.60;8.68;;;;;;;1.14;73.02;96418.00;5062237;28;20036;-69
2024/01/29 06:16:06;;;;;;;14.43;8.45;;;;;;;1.21;73.04;96415.28;5057210;28;20040;-70
2024/01/29 06:18:32;;;;;;;12.55;8.50;;;;;;;1.23;73.08;96417.84;5052294;28;20046;-69
2024/01/29 06:20:57;;;;;;;17.38;9.73;;;;;;;1.16;72.32;96419.66;5060707;28;20035;-68
2024/01/29 06:23:22;;;;;;;13.98;8.57;;;;;;;1.04;72.91;96409.69;5066740;28;20033;-69
2024/01/29 06:25:48;;;;;;;15.65;9.40;;;;;;;0.79;72.67;96374.34;5059231;28;20478;-68
2024/01/29 06:28:13;;;;;;;15.50;9.52;;;;;;;1.08;73.42;96424.94;5059919;28;20091;-68
2024/01/29 06:30:40;;;;;;;16.90;9.98;;;;;;;1.14;72.70;96413.72;5067221;28;20028;-67
2024/01/29 06:33:05;;;;;;;19.20;8.90;;;;;;;1.24;72.72;96422.06;5050220;28;20035;-68
2024/01/29 06:35:31;;;;;;;16.52;9.95;;;;;;;1.14;72.83;96413.72;5058295;28;20048;-68
2024/01/29 06:37:56;;;;;;;21.25;12.68;;;;;;;1.25;72.66;96429.69;5049852;28;20033;-68
2024/01/29 06:40:26;;;;;;;21.08;14.45;;;;;;;1.29;72.95;96421.09;5060729;28;20052;-69
2024/01/29 06:42:55;;;;;;;18.55;10.75;;;;;;;1.36;73.12;96423.53;5054270;28;20047;-68
2024/01/29 06:45:21;;;;;;;15.50;9.93;;;;;;;1.53;72.89;96435.13;5048558;28;20028;-68
2024/01/29 06:47:46;;;;;;;21.42;12.07;;;;;;;1.47;73.04;96419.84;5051717;28;20028;-69
2024/01/29 06:50:12;;;;;;;25.85;13.75;;;;;;;1.64;72.45;96441.69;5062470;28;20036;-69
2024/01/29 06:52:37;;;;;;;38.72;18.38;;;;;;;1.64;71.63;96416.06;5052492;28;20031;-68
2024/01/29 06:55:03;;;;;;;31.95;16.08;;;;;;;1.70;71.42;96427.06;5070965;28;20468;-68
2024/01/29 06:57:28;;;;;;;39.75;19.45;;;;;;;1.75;70.74;96427.75;5068230;28;20032;-69
2024/01/29 06:59:54;;;;;;;39.55;19.25;;;;;;;1.71;71.01;96443.25;5069886;28;20039;-68
2024/01/29 07:02:19;;;;;;;35.33;19.55;;;;;;;1.81;70.69;96441.31;5053421;28;20063;-68
2024/01/29 07:04:45;;;;;;;37.35;19.13;;;;;;;1.81;71.28;96429.34;5057813;28;20478;-68
2024/01/29 07:07:10;;;;;;;38.15;18.73;;;;;;;1.93;70.35;96438.50;5055920;28;20093;-68
2024/01/29 07:09:36;;;;;;;33.95;17.25;;;;;;;1.98;69.89;96432.38;5062625;28;20040;-68
2024/01/29 07:12:02;;;;;;;31.73;17.50;;;;;;;1.98;69.66;96436.69;5066611;28;20082;-68
2024/01/29 07:14:27;;;;;;;30.40;14.98;;;;;;;1.99;69.78;96430.66;5064851;28;20406;-67
2024/01/29 07:16:52;;;;;;;27.58;15.20;;;;;;;1.98;69.38;96436.69;5069716;28;20036;-68
2024/01/29 07:19:23;;;;;;;31.20;15.93;;;;;;;1.93;69.77;96435.94;5058491;28;20024;-68
2024/01/29 07:21:49;;;;;;;28.52;15.00;;;;;;;1.92;69.98;96439.34;5067953;28;20056;-68
2024/01/29 07:24:15;;;;;;;30.98;14.90;;;;;;;1.75;70.68;96426.94;5051377;28;20029;-68
2024/01/29 07:26:40;;;;;;;25.85;12.45;;;;;;;2.00;69.76;96440.03;5060016;28;20085;-67
2024/01/29 07:29:06;;;;;;;22.20;12.32;;;;;;;1.84;69.67;96438.69;5054484;28;20506;-67
2024/01/29 07:31:31;;;;;;;23.02;10.98;;;;;;;1.55;70.31;96446.16;5059939;28;20418;-67
2024/01/29 07:33:56;;;;;;;20.10;11.20;;;;;;;1.79;70.03;96442.22;5057257;28;20108;-67
2024/01/29 07:36:22;;;;;;;19.55;10.63;;;;;;;1.95;69.09;96439.28;5048836;28;20057;-67
2024/01/29 07:38:48;;;;;;;24.10;11.90;;;;;;;1.88;69.07;96442.88;5047361;28;20491;-67
2024/01/29 07:41:13;;;;;;;24.85;11.82;;;;;;;1.75;68.76;96445.69;5048602;28;20059;-67
2024/01/29 07:43:39;;;;;;;18.90;9.60;;;;;;;1.68;68.27;96439.03;5052013;28;20024;-68
2024/01/29 07:46:04;;;;;;;19.25;9.38;;;;;;;1.60;68.20;96440.09;5055187;28;20236;-68
2024/01/29 07:48:30;;;;;;;18.65;10.02;;;;;;;1.95;67.87;96441.84;5068250;28;20044;-68
2024/01/29 07:50:56;;;;;;;19.92;9.90;;;;;;;1.95;68.04;96436.72;5038320;28;20029;-68
2024/01/29 07:53:22;;;;;;;16.77;10.15;;;;;;;2.05;66.38;96447.63;5022316;28;20037;-68
2024/01/29 07:55:47;;;;;;;15.80;8.60;;;;;;;1.88;66.59;96451.41;5066539;28;20033;-68
2024/01/29 07:58:13;;;;;;;14.40;8.18;;;;;;;2.19;65.72;96454.09;5051783;28;20040;-68
2024/01/29 08:00:39;;;;;;;17.45;10.23;;;;;;;2.00;65.09;96445.16;5036490;28;20547;-68
2024/01/29 08:03:06;;;;;;;18.40;11.63;;;;;;;1.87;65.53;96448.91;5069029;28;20044;-69
2024/01/29 08:05:32;;;;;;;13.15;8.88;;;;;;;1.90;64.26;96449.66;5030333;28;20410;-68
2024/01/29 08:07:57;;;;;;;12.23;7.53;;;;;;;1.93;64.02;96449.59;5057689;28;20037;-70
2024/01/29 08:10:23;;;;;;;13.48;8.50;;;;;;;2.43;63.07;96456.97;5052899;28;20036;-68
2024/01/29 08:12:48;;;;;;;19.85;7.95;;;;;;;2.56;62.15;96460.03;5036455;28;20036;-69
2024/01/29 08:15:15;;;;;;;15.43;7.95;;;;;;;2.19;62.42;96458.38;5063066;28;20029;-67
2024/01/29 08:17:40;;;;;;;18.95;9.95;;;;;;;2.05;61.43;96468.97;5069983;28;20029;-69
2024/01/29 08:20:06;;;;;;;11.02;7.78;;;;;;;1.85;60.47;96471.16;5068325;28;20078;-67
2024/01/29 08:22:32;;;;;;;10.02;5.75;;;;;;;1.64;59.34;96463.03;5073127;28;20025;-67
2024/01/29 08:24:58;;;;;;;12.50;6.20;;;;;;;1.81;58.48;96474.63;5041574;28;20544;-68
2024/01/29 08:27:23;;;;;;;11.95;6.47;;;;;;;1.92;57.43;96475.25;5055472;28;21145;-69
2024/01/29 08:29:49;;;;;;;15.75;8.07;;;;;;;1.87;58.20;96489.91;5059973;28;20044;-67
2024/01/29 08:32:14;;;;;;;13.40;6.90;;;;;;;1.67;57.52;96487.75;5030755;28;20517;-68
2024/01/29 08:34:39;;;;;;;11.77;6.68;;;;;;;1.83;57.76;96495.97;5055360;28;20078;-67
2024/01/29 08:37:05;;;;;;;12.57;6.90;;;;;;;1.91;57.24;96494.06;5039327;28;20513;-67
2024/01/29 08:39:30;;;;;;;14.65;7.03;;;;;;;1.88;57.07;96496.72;5055823;28;20513;-67
2024/01/29 08:41:56;;;;;;;13.77;8.15;;;;;;;1.77;56.68;96490.09;5055710;28;20047;-67
2024/01/29 08:44:21;;;;;;;14.95;7.47;;;;;;;1.98;56.22;96490.50;5072602;28;20032;-68
2024/01/29 08:46:47;;;;;;;11.02;6.15;;;;;;;1.91;57.25;96501.75;5054034;28;20036;-67
2024/01/29 08:49:14;;;;;;;8.60;4.70;;;;;;;1.71;56.55;96504.75;5056658;28;20032;-67
2024/01/29 08:51:40;;;;;;;7.65;4.78;;;;;;;1.75;56.03;96506.38;5070742;28;20036;-67
2024/01/29 08:54:05;;;;;;;8.93;4.65;;;;;;;1.86;56.44;96504.41;5061015;28;20090;-68
2024/01/29 08:56:31;;;;;;;7.55;4.40;;;;;;;1.90;55.97;96505.22;5055484;28;20025;-67
2024/01/29 08:58:57;;;;;;;8.80;4.65;;;;;;;1.72;55.56;96488.50;5060321;28;20110;-67
2024/01/29 09:01:22;;;;;;;6.22;3.42;;;;;;;1.83;55.01;96495.97;5053618;28;20028;-68
2024/01/29 09:03:48;;;;;;;9.20;5.43;;;;;;;2.05;55.17;96502.28;5064499;28;20025;-67
2024/01/29 09:06:13;;;;;;;15.27;7.65;;;;;;;1.73;56.70;96492.75;5068990;28;20025;-67
2024/01/29 09:08:41;;;;;;;18.10;9.73;;;;;;;1.84;56.48;96505.31;5070546;28;20021;-68
2024/01/29 09:11:07;;;;;;;19.05;9.68;;;;;;;1.62;57.23;96472.50;5053586;28;20036;-67
2024/01/29 09:13:32;;;;;;;11.48;6.07;;;;;;;1.71;56.00;96495.34;5071509;28;20031;-67
2024/01/29 09:15:58;;;;;;;11.30;6.00;;;;;;;1.79;55.82;96506.28;5072719;28;20486;-67
2024/01/29 09:18:24;;;;;;;12.88;5.70;;;;;;;1.77;55.83;96507.19;5071671;28;20044;-68
2024/01/29 09:20:49;;;;;;;9.48;4.80;;;;;;;1.93;55.39;96493.16;5054814;28;20102;-67
2024/01/29 09:23:14;;;;;;;8.55;4.82;;;;;;;1.77;55.71;96495.22;5053580;28;20509;-67
2024/01/29 09:25:41;;;;;;;7.30;3.40;;;;;;;1.77;55.44;96481.56;5070528;28;20074;-67
2024/01/29 09:28:07;;;;;;;5.00;3.13;;;;;;;2.04;55.17;96484.41;5070637;28;20407;-68
2024/01/29 09:30:32;;;;;;;8.00;4.07;;;;;;;2.24;54.74;96485.59;5071283;28;20028;-67
2024/01/29 09:32:58;;;;;;;12.18;7.80;;;;;;;2.37;54.42;96469.94;5071152;28;20025;-68
2024/01/29 09:35:24;;;;;;;25.13;10.90;;;;;;;2.22;53.64;96479.66;5072425;28;20505;-68
2024/01/29 09:37:49;;;;;;;7.50;3.85;;;;;;;2.10;54.34;96456.88;5071918;28;20029;-68
2024/01/29 09:40:14;;;;;;;5.28;3.63;;;;;;;2.12;54.13;96485.91;5072398;28;20021;-69
2024/01/29 09:42:40;;;;;;;5.60;3.47;;;;;;;2.30;54.53;96481.22;5071334;28;20024;-68
2024/01/29 09:45:08;;;;;;;7.03;4.07;;;;;;;2.19;54.25;96476.34;5054943;28;20036;-68
2024/01/29 09:47:33;;;;;;;5.07;3.30;;;;;;;2.26;54.22;96477.91;5054768;28;20040;-68
2024/01/29 09:49:59;;;;;;;4.55;2.78;;;;;;;2.43;53.42;96468.06;5053993;28;20043;-68
2024/01/29 09:52:25;;;;;;;5.60;3.15;;;;;;;2.27;54.20;96463.34;5050128;28;20040;-68
2024/01/29 09:54:50;;;;;;;7.18;4.28;;;;;;;2.73;52.21;96481.00;5051213;28;20021;-67
2024/01/29 09:57:16;;;;;;;8.23;4.82;;;;;;;2.65;53.51;96478.63;5053827;28;20117;-68
2024/01/29 09:59:41;;;;;;;10.60;5.38;;;;;;;2.73;53.40;96477.59;5064367;28;20111;-68
2024/01/29 10:02:08;;;;;;;8.85;4.72;;;;;;;2.66;53.70;96475.19;5054011;28;20033;-68
2024/01/29 10:04:33;;;;;;;5.97;4.07;;;;;;;2.79;53.91;96472.31;5037520;28;20032;-68
2024/01/29 10:06:59;;;;;;;6.38;3.70;;;;;;;2.67;53.81;96463.19;5070432;28;20035;-68
2024/01/29 10:09:24;;;;;;;6.97;3.92;;;;;;;2.85;52.96;96470.41;5038112;28;20051;-69
2024/01/29 10:11:50;;;;;;;6.47;3.92;;;;;;;2.76;53.48;96464.66;5057741;28;20041;-67
2024/01/29 10:14:18;;;;;;;5.63;3.45;;;;;;;2.76;53.15;96469.78;5069879;28;20028;-68
2024/01/29 10:16:43;;;;;;;9.63;4.88;;;;;;;2.87;53.12;96466.09;5071758;28;20029;-67
2024/01/29 10:19:12;;;;;;;9.07;4.32;;;;;;;2.78;52.80;96468.03;5070184;28;20090;-67
2024/01/29 10:21:43;;;;;;;9.82;4.88;;;;;;;2.66;53.75;96461.50;5049890;28;20044;-67
2024/01/29 10:24:15;;;;;;;9.40;4.47;;;;;;;2.63;53.74;96454.72;5041750;28;20032;-67
2024/01/29 10:26:41;;;;;;;12.43;4.90;;;;;;;2.47;54.88;96466.25;5046204;28;20123;-68
2024/01/29 10:29:07;;;;;;;7.28;3.95;;;;;;;2.43;55.02;96456.97;5033922;28;20475;-67
2024/01/29 10:31:33;;;;;;;12.07;5.72;;;;;;;2.56;55.31;96460.03;5053931;28;20040;-68
2024/01/29 10:33:59;;;;;;;12.05;5.40;;;;;;;2.48;55.73;96447.44;5049939;28;20105;-67
2024/01/29 10:36:24;;;;;;;10.95;5.60;;;;;;;2.47;55.92;96461.13;5037799;28;20044;-68
2024/01/29 10:38:50;;;;;;;13.05;6.07;;;;;;;2.39;56.53;96445.06;5060079;28;20553;-68
2024/01/29 10:41:17;;;;;;;9.27;5.35;;;;;;;2.44;55.91;96444.09;5050244;28;20028;-68
2024/01/29 10:43:46;;;;;;;8.65;4.80;;;;;;;2.42;55.70;96452.69;5057095;28;20120;-67
2024/01/29 10:46:12;;;;;;;6.25;4.18;;;;;;;2.45;54.83;96435.53;5052931;28;20098;-67
2024/01/29 10:48:37;;;;;;;11.70;5.82;;;;;;;2.52;55.54;96436.19;5053269;28;20440;-69
2024/01/29 10:51:03;;;;;;;10.60;5.72;;;;;;;2.53;56.03;96445.56;5053146;28;20036;-69
2024/01/29 10:53:28;;;;;;;10.80;6.30;;;;;;;2.41;55.66;96453.59;5050167;28;20043;-67
2024/01/29 10:55:54;;;;;;;9.23;4.78;;;;;;;2.42;56.07;96442.44;5047905;28;20036;-68
2024/01/29 10:58:19;;;;;;;10.40;4.10;;;;;;;2.50;55.17;96440.53;5069485;28;20028;-68
2024/01/29 11:00:45;;;;;;;11.10;7.60;;;;;;;3.00;54.90;96448.63;5052587;28;20104;-68
2024/01/29 11:03:12;;;;;;;10.32;5.40;;;;;;;2.73;54.67;96429.69;5070832;28;20059;-68
2024/01/29 11:05:38;;;;;;;9.85;5.35;;;;;;;2.69;54.55;96436.59;5042381;28;20036;-69
2024/01/29 11:08:04;;;;;;;9.65;5.38;;;;;;;2.90;54.43;96440.34;5028852;28;20024;-68
2024/01/29 11:10:29;;;;;;;9.95;5.28;;;;;;;2.69;53.89;96418.63;5048742;28;20041;-69
2024/01/29 11:35:56;;;;;;;9.18;6.00;;;;;;;2.85;53.09;96421.66;5093971;23;20130;-72
2024/01/29 11:38:22;;;;;;;8.52;4.60;;;;;;;3.03;53.34;96407.44;5015099;28;20506;-72
2024/01/29 11:40:48;;;;;;;7.28;4.53;;;;;;;2.93;52.16;96366.69;5032544;28;20112;-72
2024/01/29 11:43:17;;;;;;;8.35;4.88;;;;;;;3.25;52.32;96404.28;5021669;28;20029;-72
2024/01/29 11:45:48;;;;;;;24.65;11.68;;;;;;;3.63;51.84;96394.63;4985380;28;20058;-73
2024/01/29 11:48:14;;;;;;;7.57;4.83;;;;;;;3.59;51.07;96388.69;5013198;28;20040;-73